로스앤젤레스, CA

4:40 AM PST on March 02, 2015 (GMT -0800)
Natural History Museum | Change Station
CLOSE
Current Station
Personal Weather Stations
Location: Los Angeles, CA
Elevation: 207 ft
Nearby Weather Stations

Elev 207 ft 34.02 °N, 118.29 °W | Updated 35 seconds ago

흐림
흐림
47.8 °F
Feels Like 48 °F
N
0.0
바람 Variable 바람 from 동남동
Gusts 0.0 mph

오늘
High -- | Low -- °F
--% Chance of Precip.
어제
High -- | Low -- °F
Precip. -- 인치
6:20 AM 5:50 PM
상현망간의 달, 91% visible
기압 29.88 인치
가시도 10.0 마일
구름 흐림 7500 ft
풍속냉각지수 48 °F
이슬점 46 °F
습도 95%
Rainfall 0.15 인치
Snow Depth Not available.
자외선 지수 0 out of 12
Pollen 7.90 out of 12
에어 품질 Not available.
Flu Activity Not available.
METAR KCQT 021147Z AUTO 00000KT 10SM OVC075 10/09 A2989 RMK AO2 SLP119 60066 70085 T01000089 10106 20100 56015

More Conditions Fewer Conditions

기압 29.88 인치
가시도 10.0 마일
구름 흐림 7500 ft
풍속냉각지수 48 °F
이슬점 46 °F
습도 95%
Rainfall 0.15 인치
Snow Depth Not available.
자외선 지수 0 out of 12
Pollen 7.90 out of 12
에어 품질 Not available.
Flu Activity Not available.
METAR KCQT 021147Z AUTO 00000KT 10SM OVC075 10/09 A2989 RMK AO2 SLP119 60066 70085 T01000089 10106 20100 56015

More Conditions Fewer Conditions

10-Day Weather Forecast

Almanac

천문

Mar. 02, 2015 Rise Set
Actual Time
Civil Twilight
Nautical Twilight
Astronomical Twilight
Moon
Length Of Visible Light
낮 길이
Tomorrow will be .
, % of the Moon is Illuminated

Today's Extremes

State Highs State Lows

Community

WunderPhotos

Upload Photos

1,801,772 photos uploaded!

WunderBlogs® & News

Nearby

에어 품질

  에어 품질 AQ Index Pollutant
Not available.

Snow Depth

Station Depth Elevation

Earthquake Activity

City Distance Mag. Time & Date
Minimum magnitude displayed is 2.5.

Coastal Water Temperatures

장소 기온

Nearby Weather Stations